Time;durP1;ratioP1;P1;durP2;ratioP2;P2;SDS_P1;SDS_P2;PMS_P1;PMS_P2;Temp;Humidity;BMP_temperature;BMP_pressure;BME280_temperature;BME280_humidity;BME280_pressure;Samples;Min_cycle;Max_cycle;Signal;HPM_P1;HPM_P2
2021/01/19 00:01:33;;;;;;;14.97;6.50;;;4.60;99.90;;;;;;5136610;27;20212;-87
2021/01/19 00:04:07;;;;;;;17.90;7.60;;;4.60;99.90;;;;;;5136535;27;20214;-88
2021/01/19 00:06:41;;;;;;;18.87;7.17;;;4.50;99.90;;;;;;5136697;27;20176;-87
2021/01/19 00:09:14;;;;;;;26.10;7.60;;;4.60;99.90;;;;;;5118504;27;20172;-88
2021/01/19 00:11:45;;;;;;;11.60;5.73;;;4.60;99.90;;;;;;5118476;27;20204;-87
2021/01/19 00:14:19;;;;;;;13.90;7.60;;;4.60;99.90;;;;;;5118109;27;20265;-88
2021/01/19 00:16:53;;;;;;;18.37;8.30;;;4.60;99.90;;;;;;5136451;27;20240;-87
2021/01/19 00:19:25;;;;;;;17.90;8.03;;;4.60;99.90;;;;;;5117934;27;20200;-88
2021/01/19 00:21:54;;;;;;;17.67;8.27;;;4.60;99.90;;;;;;5117687;27;20219;-88
2021/01/19 00:24:28;;;;;;;24.30;9.53;;;4.70;99.90;;;;;;5117917;27;20181;-88
2021/01/19 00:26:59;;;;;;;10.73;7.30;;;4.70;99.90;;;;;;5117986;27;20173;-89
2021/01/19 00:29:33;;;;;;;14.00;7.90;;;4.60;99.90;;;;;;5117930;27;20266;-88
2021/01/19 00:32:01;;;;;;;16.87;9.40;;;4.60;99.90;;;;;;5136187;27;20224;-89
2021/01/19 00:34:33;;;;;;;22.13;9.83;;;4.60;99.90;;;;;;5118077;27;20180;-88
2021/01/19 00:37:06;;;;;;;19.13;9.50;;;4.50;99.90;;;;;;5117918;27;20179;-87
2021/01/19 00:39:38;;;;;;;28.93;10.47;;;4.60;99.90;;;;;;5136627;27;20157;-87
2021/01/19 00:42:11;;;;;;;16.53;10.83;;;4.60;99.90;;;;;;5135762;27;20204;-88
2021/01/19 00:44:42;;;;;;;20.50;11.30;;;4.50;99.90;;;;;;5134903;27;20259;-87
2021/01/19 00:47:16;;;;;;;17.07;10.03;;;4.60;99.90;;;;;;5117389;27;20690;-87
2021/01/19 00:49:49;;;;;;;18.30;9.60;;;4.60;99.90;;;;;;5135823;27;20644;-87
2021/01/19 00:52:20;;;;;;;15.73;10.27;;;4.60;99.90;;;;;;5135727;27;20201;-87
2021/01/19 00:54:53;;;;;;;16.00;10.30;;;4.60;99.90;;;;;;5117239;27;20187;-87
2021/01/19 00:57:23;;;;;;;17.50;9.43;;;4.50;99.90;;;;;;5117184;27;20173;-87
2021/01/19 00:59:59;;;;;;;20.00;11.03;;;4.60;99.90;;;;;;5135853;27;20190;-87
2021/01/19 01:02:35;;;;;;;20.03;11.43;;;4.50;99.90;;;;;;5135511;27;20216;-87
2021/01/19 01:05:11;;;;;;;20.70;11.13;;;4.60;99.90;;;;;;5135793;27;20236;-87
2021/01/19 01:07:40;;;;;;;12.23;7.80;;;4.60;99.90;;;;;;5117140;27;20655;-87
2021/01/19 01:10:17;;;;;;;24.87;13.50;;;4.60;99.90;;;;;;5117048;27;20176;-88
2021/01/19 01:12:48;;;;;;;26.93;12.17;;;4.60;99.90;;;;;;5135407;27;20184;-88
2021/01/19 01:15:30;;;;;;;20.67;11.13;;;4.60;99.90;;;;;;5117211;27;20245;-88
2021/01/19 01:18:01;;;;;;;22.63;10.67;;;4.60;99.90;;;;;;5116813;27;20252;-87
2021/01/19 01:20:37;;;;;;;18.00;10.27;;;4.50;99.90;;;;;;5134879;27;20224;-87
2021/01/19 01:23:13;;;;;;;23.37;9.97;;;4.50;99.90;;;;;;5135323;27;20194;-87
2021/01/19 01:25:45;;;;;;;18.53;11.97;;;4.50;99.90;;;;;;5117223;27;20373;-87
2021/01/19 01:28:19;;;;;;;19.20;11.43;;;4.40;99.90;;;;;;5135300;27;20149;-87
2021/01/19 01:30:48;;;;;;;19.07;11.83;;;4.40;99.90;;;;;;5116750;27;20176;-87
2021/01/19 01:33:21;;;;;;;18.83;9.70;;;4.30;99.90;;;;;;5116320;27;20197;-87
2021/01/19 01:35:51;;;;;;;15.97;9.03;;;4.40;99.90;;;;;;5134894;27;20252;-87
2021/01/19 01:38:21;;;;;;;17.50;10.10;;;4.40;99.90;;;;;;5116323;27;20200;-87
2021/01/19 01:40:50;;;;;;;21.43;12.70;;;4.40;99.90;;;;;;5116535;27;20607;-87
2021/01/19 01:43:21;;;;;;;25.87;11.93;;;4.40;99.90;;;;;;5134609;27;20195;-87
2021/01/19 01:45:49;;;;;;;14.50;9.60;;;4.30;99.90;;;;;;5134611;27;20195;-87
2021/01/19 01:48:20;;;;;;;23.20;11.67;;;4.30;99.90;;;;;;5116252;27;20179;-87
2021/01/19 01:50:53;;;;;;;15.43;11.27;;;4.40;99.90;;;;;;5134709;27;20544;-87
2021/01/19 01:53:23;;;;;;;11.37;7.67;;;4.30;99.90;;;;;;5116549;27;20197;-87
2021/01/19 01:55:57;;;;;;;10.43;7.57;;;4.30;99.90;;;;;;5134238;27;20187;-87
2021/01/19 01:58:25;;;;;;;26.63;11.00;;;4.30;99.90;;;;;;5116326;27;20176;-87
2021/01/19 02:00:56;;;;;;;27.27;12.80;;;4.20;99.90;;;;;;5116060;27;20245;-87
2021/01/19 02:03:28;;;;;;;17.70;11.93;;;4.20;99.90;;;;;;5116294;27;20555;-87
2021/01/19 02:06:01;;;;;;;18.97;11.60;;;4.20;99.90;;;;;;5115987;27;20258;-87
2021/01/19 02:09:08;;;;;;;24.23;13.17;;;4.10;99.90;;;;;;5116282;27;20726;-87
2021/01/19 02:12:10;;;;;;;18.90;12.83;;;4.10;99.90;;;;;;5134405;27;20157;-87
2021/01/19 02:14:50;;;;;;;18.73;12.70;;;4.10;99.90;;;;;;5134269;27;20219;-87
2021/01/19 02:17:38;;;;;;;28.67;13.53;;;4.00;99.90;;;;;;5115976;28;20248;-87
2021/01/19 02:20:42;;;;;;;24.50;13.90;;;4.00;99.90;;;;;;5115738;28;20176;-87
2021/01/19 02:23:35;;;;;;;26.93;14.40;;;4.00;99.90;;;;;;5115764;28;20232;-87
2021/01/19 02:26:57;;;;;;;21.23;12.13;;;4.00;99.90;;;;;;5134511;28;20177;-87
2021/01/19 02:29:37;;;;;;;30.53;14.67;;;4.10;99.90;;;;;;5115820;28;20189;-87
2021/01/19 02:32:24;;;;;;;25.27;15.20;;;4.10;99.90;;;;;;5116016;28;20194;-87
2021/01/19 02:35:04;;;;;;;22.93;15.47;;;4.10;99.90;;;;;;5115849;28;20163;-87
2021/01/19 02:37:56;;;;;;;25.73;14.97;;;4.00;99.90;;;;;;5116360;28;20182;-87
2021/01/19 02:40:23;;;;;;;25.70;17.33;;;4.00;99.90;;;;;;5134331;28;20156;-87
2021/01/19 02:43:06;;;;;;;28.47;17.60;;;4.00;99.90;;;;;;5116343;28;20227;-87
2021/01/19 02:45:44;;;;;;;24.73;16.10;;;4.00;99.90;;;;;;5134078;28;20645;-87
2021/01/19 02:48:18;;;;;;;32.20;16.67;;;4.00;99.90;;;;;;5115650;28;20175;-87
2021/01/19 02:50:50;;;;;;;21.00;12.93;;;4.10;99.90;;;;;;5115676;28;20654;-87
2021/01/19 02:53:20;;;;;;;21.23;11.07;;;4.10;99.90;;;;;;5133807;28;20193;-87
2021/01/19 02:55:47;;;;;;;30.47;16.50;;;4.10;99.90;;;;;;5115666;28;20205;-87
2021/01/19 02:58:50;;;;;;;29.90;20.53;;;4.10;99.90;;;;;;5133871;28;20179;-87
2021/01/19 03:01:31;;;;;;;40.50;21.83;;;4.10;99.90;;;;;;5115375;28;20195;-87
2021/01/19 03:04:05;;;;;;;30.57;18.40;;;4.10;99.90;;;;;;5115340;28;20535;-87
2021/01/19 03:06:41;;;;;;;31.93;19.57;;;4.10;99.90;;;;;;5133953;27;20148;-87
2021/01/19 03:09:15;;;;;;;37.93;20.80;;;4.10;99.90;;;;;;5119195;27;20163;-87
2021/01/19 03:11:41;;;;;;;28.87;16.27;;;4.10;99.90;;;;;;5137693;27;20167;-87
2021/01/19 03:14:12;;;;;;;34.60;20.83;;;4.10;99.90;;;;;;5137634;27;20175;-87
2021/01/19 03:16:46;;;;;;;25.60;16.77;;;4.10;99.90;;;;;;5137564;27;20183;-87
2021/01/19 03:19:21;;;;;;;30.30;19.73;;;4.20;99.90;;;;;;5137554;27;20732;-87
2021/01/19 03:21:52;;;;;;;34.83;23.13;;;4.20;99.90;;;;;;5137391;27;20201;-87
2021/01/19 03:24:19;;;;;;;35.47;22.27;;;4.20;99.90;;;;;;5119172;27;20183;-87
2021/01/19 03:26:51;;;;;;;36.23;21.37;;;4.10;99.90;;;;;;5118943;27;20192;-87
2021/01/19 03:29:22;;;;;;;35.23;20.30;;;4.20;99.90;;;;;;5137354;27;20165;-87
2021/01/19 03:31:53;;;;;;;32.00;20.63;;;4.10;99.90;;;;;;5137214;27;20660;-87
2021/01/19 03:34:22;;;;;;;35.47;22.77;;;4.10;99.90;;;;;;5118860;27;20187;-87
2021/01/19 03:36:51;;;;;;;37.90;25.70;;;4.20;99.90;;;;;;5118770;27;20266;-87
2021/01/19 03:39:25;;;;;;;38.70;26.53;;;4.10;99.90;;;;;;5118758;27;20682;-87
2021/01/19 03:41:56;;;;;;;42.53;25.87;;;4.10;99.90;;;;;;5118572;27;20680;-87
2021/01/19 03:44:23;;;;;;;42.33;24.97;;;4.20;99.90;;;;;;5118687;27;20180;-87
2021/01/19 03:46:56;;;;;;;40.43;26.53;;;4.10;99.90;;;;;;5118641;27;20169;-87
2021/01/19 03:49:26;;;;;;;32.83;18.63;;;4.10;99.90;;;;;;5118926;27;20172;-87
2021/01/19 03:51:56;;;;;;;33.60;22.30;;;4.10;99.90;;;;;;5118731;27;20218;-87
2021/01/19 03:54:31;;;;;;;37.30;24.90;;;4.20;99.90;;;;;;5118490;27;20194;-87
2021/01/19 03:57:01;;;;;;;34.30;23.53;;;4.20;99.90;;;;;;5119328;27;20172;-87
2021/01/19 03:59:30;;;;;;;35.77;23.83;;;4.20;99.90;;;;;;5118395;27;20180;-87
2021/01/19 04:02:04;;;;;;;47.00;27.87;;;4.20;99.90;;;;;;5118301;27;20270;-87
2021/01/19 04:04:36;;;;;;;29.80;19.93;;;4.20;99.90;;;;;;5118270;27;20172;-87
2021/01/19 04:07:07;;;;;;;31.10;19.37;;;4.20;99.90;;;;;;5118228;27;20170;-87
2021/01/19 04:09:41;;;;;;;39.30;22.23;;;4.10;99.90;;;;;;5118661;27;20195;-87
2021/01/19 04:12:07;;;;;;;40.83;26.23;;;4.10;99.90;;;;;;5118024;27;20190;-87
2021/01/19 04:14:41;;;;;;;37.83;25.60;;;4.20;99.90;;;;;;5118502;27;20200;-87
2021/01/19 04:17:13;;;;;;;31.03;20.60;;;4.10;99.90;;;;;;5118132;27;20173;-87
2021/01/19 04:19:44;;;;;;;38.27;25.37;;;4.10;99.90;;;;;;5117928;27;20260;-87
2021/01/19 04:22:19;;;;;;;35.63;25.73;;;4.10;99.90;;;;;;5117652;27;20212;-87
2021/01/19 04:24:51;;;;;;;22.57;16.67;;;4.10;99.90;;;;;;5118519;27;20179;-87
2021/01/19 04:27:23;;;;;;;38.33;24.03;;;4.10;99.90;;;;;;5136227;27;20171;-87
2021/01/19 04:29:55;;;;;;;38.60;26.23;;;4.10;99.90;;;;;;5117822;27;20558;-88
2021/01/19 04:32:27;;;;;;;33.67;22.33;;;4.10;99.90;;;;;;5117803;27;20196;-87
2021/01/19 04:35:00;;;;;;;43.63;26.63;;;4.00;99.90;;;;;;5136450;27;20187;-87
2021/01/19 04:37:37;;;;;;;39.90;27.77;;;4.00;99.90;;;;;;5117635;27;20694;-87
2021/01/19 04:40:10;;;;;;;38.60;24.83;;;4.10;99.90;;;;;;5136075;27;20337;-87
2021/01/19 04:42:37;;;;;;;36.93;21.53;;;3.90;99.90;;;;;;5117426;27;20324;-87
2021/01/19 04:45:08;;;;;;;39.40;23.57;;;4.00;99.90;;;;;;5117627;27;20175;-87
2021/01/19 04:47:41;;;;;;;25.57;17.80;;;4.00;99.90;;;;;;5117504;27;20180;-87
2021/01/19 04:50:10;;;;;;;33.77;22.80;;;4.00;99.90;;;;;;5117740;27;20186;-88
2021/01/19 04:52:50;;;;;;;30.80;21.53;;;4.00;99.90;;;;;;5117297;27;20190;-87
2021/01/19 04:55:24;;;;;;;24.13;16.07;;;3.90;99.90;;;;;;5135730;27;20205;-87
2021/01/19 04:58:01;;;;;;;15.40;10.97;;;4.00;99.90;;;;;;5117575;27;20174;-87
2021/01/19 05:00:36;;;;;;;17.60;13.27;;;3.90;99.90;;;;;;5117855;27;20524;-87
2021/01/19 05:03:21;;;;;;;19.20;12.43;;;3.90;99.90;;;;;;5135873;27;20548;-87
2021/01/19 05:06:06;;;;;;;23.57;15.80;;;3.90;99.90;;;;;;5117330;27;20529;-87
2021/01/19 05:08:53;;;;;;;16.90;11.77;;;3.80;99.90;;;;;;5135494;27;20166;-87
2021/01/19 05:11:35;;;;;;;17.47;13.60;;;3.80;99.90;;;;;;5116916;27;20191;-87
2021/01/19 05:14:10;;;;;;;16.10;10.87;;;3.80;99.90;;;;;;5116873;27;20599;-87
2021/01/19 05:16:41;;;;;;;15.60;11.93;;;3.80;99.90;;;;;;5116994;27;20176;-87
2021/01/19 05:19:10;;;;;;;19.73;13.77;;;3.80;99.90;;;;;;5135311;27;20650;-87
2021/01/19 05:21:46;;;;;;;18.43;12.57;;;3.80;99.90;;;;;;5117108;27;20218;-87
2021/01/19 05:24:14;;;;;;;18.00;13.13;;;3.80;99.90;;;;;;5117256;27;20179;-87
2021/01/19 05:26:51;;;;;;;20.90;15.77;;;3.90;99.90;;;;;;5116797;27;20171;-87
2021/01/19 05:29:23;;;;;;;23.67;15.97;;;3.90;99.90;;;;;;5135064;27;20152;-87
2021/01/19 05:31:53;;;;;;;19.93;13.23;;;3.80;99.90;;;;;;5116003;27;20611;-87
2021/01/19 05:34:26;;;;;;;17.53;7.47;;;3.90;99.90;;;;;;5134986;27;20170;-87
2021/01/19 05:36:54;;;;;;;19.87;12.40;;;3.90;99.90;;;;;;5117111;27;20166;-87
2021/01/19 05:39:28;;;;;;;21.33;13.40;;;3.90;99.90;;;;;;5134912;27;20204;-87
2021/01/19 05:42:04;;;;;;;19.60;14.30;;;4.00;99.90;;;;;;5116230;27;20199;-88
2021/01/19 05:44:37;;;;;;;12.13;9.63;;;4.00;99.90;;;;;;5116397;27;20168;-87
2021/01/19 05:47:10;;;;;;;16.97;11.80;;;4.00;99.90;;;;;;5116465;27;20643;-87
2021/01/19 05:49:47;;;;;;;17.70;9.17;;;4.00;99.90;;;;;;5134726;27;20196;-87
2021/01/19 05:52:29;;;;;;;19.37;14.37;;;4.00;99.90;;;;;;5116202;27;20235;-87
2021/01/19 05:54:59;;;;;;;18.37;11.73;;;4.00;99.90;;;;;;5116406;27;20217;-87
2021/01/19 05:57:31;;;;;;;12.07;8.67;;;4.00;99.90;;;;;;5116252;27;20609;-87
2021/01/19 06:00:05;;;;;;;16.40;11.57;;;4.00;99.90;;;;;;5116086;27;20179;-87
2021/01/19 06:02:47;;;;;;;16.80;11.50;;;4.00;99.90;;;;;;5115995;27;20207;-87
2021/01/19 06:05:21;;;;;;;14.00;5.27;;;4.00;99.90;;;;;;5134800;27;20158;-87
2021/01/19 06:07:55;;;;;;;12.33;9.83;;;3.90;99.90;;;;;;5116344;27;20172;-87
2021/01/19 06:10:27;;;;;;;10.67;8.27;;;3.90;99.90;;;;;;5116090;27;20170;-87
2021/01/19 06:13:01;;;;;;;8.77;6.03;;;3.80;99.90;;;;;;5115925;28;20187;-87
2021/01/19 06:15:38;;;;;;;10.83;8.10;;;3.90;99.90;;;;;;5116245;27;20178;-87
2021/01/19 06:18:10;;;;;;;7.10;5.90;;;3.80;99.90;;;;;;5116041;27;20258;-87
2021/01/19 06:20:46;;;;;;;16.07;8.97;;;3.80;99.90;;;;;;5134182;27;20212;-87
2021/01/19 06:23:19;;;;;;;7.27;5.67;;;3.80;99.90;;;;;;5134259;28;20196;-87
2021/01/19 06:25:49;;;;;;;8.97;5.97;;;3.90;99.90;;;;;;5115812;28;20166;-87
2021/01/19 06:28:17;;;;;;;7.80;6.37;;;3.80;99.90;;;;;;5134211;28;20172;-87
2021/01/19 06:30:51;;;;;;;7.73;5.37;;;3.80;99.90;;;;;;5115812;28;20180;-87
2021/01/19 06:33:27;;;;;;;6.93;6.23;;;3.80;99.90;;;;;;5116198;28;20630;-87
2021/01/19 06:36:06;;;;;;;9.73;7.53;;;3.80;99.90;;;;;;5115782;28;20677;-88
2021/01/19 06:38:43;;;;;;;9.37;6.83;;;3.80;99.90;;;;;;5115757;28;20178;-87
2021/01/19 06:41:18;;;;;;;10.10;8.90;;;3.70;99.90;;;;;;5115743;27;20261;-87
2021/01/19 06:43:54;;;;;;;14.07;10.33;;;3.80;99.90;;;;;;5119489;27;20276;-87
2021/01/19 06:46:31;;;;;;;10.77;9.17;;;3.70;99.90;;;;;;5138398;27;20647;-87
2021/01/19 06:49:06;;;;;;;15.40;11.80;;;3.70;99.90;;;;;;5119773;27;20253;-87
2021/01/19 06:51:40;;;;;;;9.57;6.90;;;3.70;99.90;;;;;;5138222;27;20193;-87
2021/01/19 06:54:15;;;;;;;15.33;11.57;;;3.70;99.90;;;;;;5138117;27;20658;-87
2021/01/19 06:57:02;;;;;;;5.57;4.83;;;3.70;99.90;;;;;;5120531;27;20161;-87
2021/01/19 06:59:41;;;;;;;13.50;9.93;;;3.70;99.90;;;;;;5119917;27;20173;-87
2021/01/19 07:02:17;;;;;;;13.47;11.23;;;3.80;99.90;;;;;;5137762;27;20211;-87
2021/01/19 07:05:06;;;;;;;14.13;12.50;;;3.80;99.90;;;;;;5137953;27;20163;-87
2021/01/19 07:07:49;;;;;;;15.10;10.53;;;3.80;99.90;;;;;;5119414;27;20172;-87
2021/01/19 07:10:35;;;;;;;12.60;9.43;;;3.70;99.90;;;;;;5119408;27;20185;-87
2021/01/19 07:13:04;;;;;;;12.13;9.90;;;3.70;99.90;;;;;;5119213;27;20186;-87
2021/01/19 07:15:59;;;;;;;9.23;7.40;;;3.70;99.90;;;;;;5119339;27;20549;-87
2021/01/19 07:18:53;;;;;;;11.07;9.87;;;3.70;99.90;;;;;;5119252;27;20174;-87
2021/01/19 07:21:31;;;;;;;12.87;8.30;;;3.70;99.90;;;;;;5137476;27;20212;-87
2021/01/19 07:24:19;;;;;;;12.13;9.37;;;3.80;99.90;;;;;;5137738;27;20269;-87
2021/01/19 07:26:53;;;;;;;8.23;7.07;;;3.80;99.90;;;;;;5119361;27;20659;-87
2021/01/19 07:29:26;;;;;;;9.90;7.80;;;3.80;99.90;;;;;;5119333;27;20170;-87
2021/01/19 07:32:06;;;;;;;17.77;12.23;;;3.70;99.90;;;;;;5119397;27;20623;-87
2021/01/19 07:34:39;;;;;;;15.60;11.43;;;3.70;99.90;;;;;;5118889;27;20183;-87
2021/01/19 07:37:12;;;;;;;19.13;12.77;;;3.70;99.90;;;;;;5118890;27;20550;-87
2021/01/19 07:39:43;;;;;;;14.97;9.13;;;3.70;99.90;;;;;;5119052;27;20635;-87
2021/01/19 07:42:21;;;;;;;11.23;5.37;;;3.70;99.90;;;;;;5119206;27;20211;-86
2021/01/19 07:45:05;;;;;;;11.07;8.40;;;3.70;99.90;;;;;;5137147;27;20215;-87
2021/01/19 07:47:44;;;;;;;10.87;8.47;;;3.70;99.90;;;;;;5137001;27;20178;-87
2021/01/19 07:50:21;;;;;;;15.20;10.10;;;3.70;99.90;;;;;;5137625;27;20171;-87
2021/01/19 07:53:01;;;;;;;10.37;7.43;;;3.70;99.90;;;;;;5118121;27;20195;-87
2021/01/19 07:55:40;;;;;;;12.90;7.40;;;3.70;99.90;;;;;;5118481;27;20521;-87
2021/01/19 07:58:24;;;;;;;12.67;7.73;;;3.70;99.90;;;;;;5118330;27;20652;-87
2021/01/19 08:01:04;;;;;;;8.67;6.23;;;3.80;99.90;;;;;;5118531;27;20253;-87
2021/01/19 08:03:40;;;;;;;11.87;6.37;;;3.70;99.90;;;;;;5136829;27;20618;-87
2021/01/19 08:06:13;;;;;;;8.47;6.03;;;3.80;99.90;;;;;;5118188;27;20166;-87
2021/01/19 08:08:44;;;;;;;7.93;6.43;;;3.80;99.90;;;;;;5118619;27;20173;-87
2021/01/19 08:11:20;;;;;;;8.53;6.20;;;3.80;99.90;;;;;;5136618;27;20170;-86
2021/01/19 08:14:01;;;;;;;8.93;6.10;;;3.80;99.90;;;;;;5136426;27;20199;-86
2021/01/19 08:16:30;;;;;;;11.57;7.07;;;3.70;99.90;;;;;;5136426;27;20177;-87
2021/01/19 08:19:11;;;;;;;9.60;6.13;;;3.70;99.90;;;;;;5136473;27;20197;-87
2021/01/19 08:21:55;;;;;;;11.33;8.17;;;3.70;99.90;;;;;;5117810;27;20268;-87
2021/01/19 08:24:22;;;;;;;9.47;6.30;;;3.70;99.90;;;;;;5118334;27;20244;-87
2021/01/19 08:26:55;;;;;;;6.23;4.30;;;3.70;99.90;;;;;;5118277;27;20175;-86
2021/01/19 08:29:23;;;;;;;8.50;6.30;;;3.70;99.90;;;;;;5118348;27;20164;-87
2021/01/19 08:31:55;;;;;;;4.73;3.40;;;3.80;99.90;;;;;;5136187;27;20647;-87
2021/01/19 08:34:28;;;;;;;9.17;5.73;;;3.70;99.90;;;;;;5117830;27;20592;-87
2021/01/19 08:36:59;;;;;;;10.43;6.13;;;3.80;99.90;;;;;;5136276;27;20153;-87
2021/01/19 08:39:31;;;;;;;8.77;5.37;;;3.70;99.90;;;;;;5117802;27;20180;-87
2021/01/19 08:42:04;;;;;;;6.63;5.17;;;3.70;99.90;;;;;;5117472;27;20198;-87
2021/01/19 08:44:30;;;;;;;4.90;4.03;;;3.70;99.90;;;;;;5135905;27;20171;-87
2021/01/19 08:47:01;;;;;;;3.20;2.67;;;3.70;99.90;;;;;;5117419;27;20179;-87
2021/01/19 08:49:38;;;;;;;7.87;3.60;;;3.70;99.90;;;;;;5135805;27;20167;-87
2021/01/19 08:52:10;;;;;;;7.20;5.03;;;3.70;99.90;;;;;;5117529;27;20250;-87
2021/01/19 08:54:47;;;;;;;6.13;5.23;;;3.70;99.90;;;;;;5117309;27;20196;-87
2021/01/19 08:57:23;;;;;;;5.47;4.70;;;3.70;99.90;;;;;;5117814;27;20170;-87
2021/01/19 08:59:53;;;;;;;5.67;4.67;;;3.70;99.90;;;;;;5117211;27;20595;-87
2021/01/19 09:02:34;;;;;;;4.47;3.57;;;3.70;99.90;;;;;;5117047;27;20211;-87
2021/01/19 09:05:05;;;;;;;5.90;4.60;;;3.70;99.90;;;;;;5116494;27;20168;-86
2021/01/19 09:07:34;;;;;;;5.50;4.90;;;3.70;99.90;;;;;;5117053;27;20533;-87
2021/01/19 09:10:08;;;;;;;6.13;4.90;;;3.80;99.90;;;;;;5117576;27;20522;-87
2021/01/19 09:12:41;;;;;;;5.57;4.00;;;3.70;99.90;;;;;;5117215;27;20244;-87
2021/01/19 09:15:08;;;;;;;4.63;4.13;;;3.80;99.90;;;;;;5135345;27;20642;-87
2021/01/19 09:17:40;;;;;;;7.40;5.10;;;3.80;99.90;;;;;;5135215;27;20173;-87
2021/01/19 09:20:16;;;;;;;2.67;2.43;;;3.80;99.90;;;;;;5116653;27;20179;-87
2021/01/19 09:22:47;;;;;;;5.80;3.97;;;3.90;99.90;;;;;;5116538;27;20254;-87
2021/01/19 09:25:23;;;;;;;4.73;4.33;;;3.80;99.90;;;;;;5116775;27;20204;-87
2021/01/19 09:28:06;;;;;;;5.27;3.63;;;3.80;99.90;;;;;;5116724;27;20261;-87
2021/01/19 09:30:38;;;;;;;8.87;6.03;;;3.80;99.90;;;;;;5117101;27;20176;-88
2021/01/19 09:33:14;;;;;;;8.40;5.53;;;3.90;99.90;;;;;;5116725;27;20190;-88
2021/01/19 09:35:53;;;;;;;4.23;3.50;;;3.80;99.90;;;;;;5116715;27;20177;-89
2021/01/19 09:38:21;;;;;;;5.87;4.57;;;3.90;99.90;;;;;;5116812;27;20207;-89
2021/01/19 09:40:48;;;;;;;4.97;4.07;;;3.90;99.90;;;;;;5135318;27;20192;-89
2021/01/19 09:43:16;;;;;;;3.03;2.77;;;3.90;99.90;;;;;;5116620;27;20224;-88
2021/01/19 09:45:43;;;;;;;5.20;4.70;;;4.00;99.90;;;;;;5116481;27;20172;-87
2021/01/19 09:48:18;;;;;;;5.27;4.77;;;3.90;99.90;;;;;;5116813;27;20320;-87
2021/01/19 09:50:46;;;;;;;5.57;4.03;;;3.90;99.90;;;;;;5116450;27;20243;-87
2021/01/19 09:53:23;;;;;;;7.00;4.33;;;4.00;99.90;;;;;;5134641;27;20200;-87
2021/01/19 09:55:50;;;;;;;5.07;4.57;;;3.90;99.90;;;;;;5116605;28;20180;-87
2021/01/19 09:58:21;;;;;;;5.17;4.20;;;3.90;99.90;;;;;;5116564;28;20208;-87
2021/01/19 10:00:47;;;;;;;4.70;3.90;;;3.90;99.90;;;;;;5116175;27;20196;-87
2021/01/19 10:03:16;;;;;;;4.73;4.13;;;4.00;99.90;;;;;;5115990;27;20198;-88
2021/01/19 10:06:07;;;;;;;8.63;4.93;;;4.00;99.90;;;;;;5116138;27;20253;-87
2021/01/19 10:08:50;;;;;;;7.47;4.73;;;4.00;99.90;;;;;;5134701;27;20172;-88
2021/01/19 10:11:32;;;;;;;5.70;4.10;;;4.00;99.90;;;;;;5116948;28;20213;-87
2021/01/19 10:14:09;;;;;;;4.10;3.70;;;4.00;99.90;;;;;;5116012;27;20202;-87
2021/01/19 10:16:36;;;;;;;5.07;4.57;;;4.00;99.90;;;;;;5115878;28;20181;-88
2021/01/19 10:19:02;;;;;;;5.07;4.27;;;4.00;99.90;;;;;;5134383;27;20168;-87
2021/01/19 10:21:30;;;;;;;5.40;4.27;;;4.00;99.90;;;;;;5134141;27;20741;-87
2021/01/19 10:24:01;;;;;;;5.27;4.60;;;4.10;99.90;;;;;;5115550;28;20296;-87
2021/01/19 10:26:29;;;;;;;1.53;1.37;;;4.10;99.90;;;;;;5137711;22;20354;-88
2021/01/19 10:28:59;;;;;;;5.73;4.23;;;4.10;99.90;;;;;;5072270;28;20171;-88
2021/01/19 10:31:27;;;;;;;5.27;4.77;;;4.10;99.90;;;;;;5072255;28;20678;-88
2021/01/19 10:34:06;;;;;;;5.43;4.10;;;4.10;99.90;;;;;;5071967;28;20526;-89
2021/01/19 10:36:33;;;;;;;4.83;4.33;;;4.10;99.90;;;;;;5071913;28;20199;-89
2021/01/19 10:39:09;;;;;;;6.03;4.30;;;4.10;99.90;;;;;;5072981;28;20179;-89
2021/01/19 10:41:36;;;;;;;5.80;5.13;;;4.10;99.90;;;;;;5072130;28;20204;-89
2021/01/19 10:44:11;;;;;;;4.63;4.20;;;4.20;99.90;;;;;;5073018;28;20174;-89
2021/01/19 10:46:44;;;;;;;4.40;4.00;;;4.20;99.90;;;;;;5071675;28;20193;-89
2021/01/19 10:49:18;;;;;;;4.83;3.87;;;4.30;99.90;;;;;;5071708;28;20176;-88
2021/01/19 10:51:52;;;;;;;3.47;3.00;;;4.30;99.90;;;;;;5072615;28;20190;-89
2021/01/19 10:54:24;;;;;;;2.97;2.67;;;4.30;99.90;;;;;;5071952;28;20187;-89
2021/01/19 10:57:07;;;;;;;7.33;4.77;;;4.30;99.90;;;;;;5071602;28;20286;-89
2021/01/19 10:59:41;;;;;;;4.20;3.80;;;4.40;99.90;;;;;;5071905;28;20177;-89
2021/01/19 11:02:14;;;;;;;6.23;5.60;;;4.40;99.90;;;;;;5073375;28;20242;-89
2021/01/19 11:04:51;;;;;;;10.13;5.67;;;4.50;99.90;;;;;;5071831;28;20177;-89
2021/01/19 11:07:20;;;;;;;8.07;5.67;;;4.40;99.90;;;;;;5071632;28;20190;-89
2021/01/19 11:09:46;;;;;;;5.87;4.63;;;4.50;99.90;;;;;;5073049;28;20574;-88
2021/01/19 11:12:19;;;;;;;6.20;4.93;;;4.50;99.90;;;;;;5071757;28;20185;-89
2021/01/19 11:14:45;;;;;;;3.60;3.00;;;4.50;99.90;;;;;;5072353;28;20170;-88
2021/01/19 11:17:14;;;;;;;5.93;5.43;;;4.50;99.90;;;;;;5071453;28;20179;-89
2021/01/19 11:19:41;;;;;;;5.00;3.70;;;4.60;99.90;;;;;;5071469;28;20557;-89
2021/01/19 11:22:20;;;;;;;5.37;4.57;;;4.60;99.90;;;;;;5071406;28;20200;-89
2021/01/19 11:24:55;;;;;;;5.93;5.33;;;4.60;99.90;;;;;;5071675;28;20169;-88
2021/01/19 11:27:28;;;;;;;4.63;4.23;;;4.60;99.90;;;;;;5073185;28;20173;-89
2021/01/19 11:29:57;;;;;;;7.50;6.43;;;4.60;99.90;;;;;;5075268;28;20169;-89
2021/01/19 11:32:24;;;;;;;4.87;4.03;;;4.70;99.90;;;;;;5075035;28;20224;-89
2021/01/19 11:34:58;;;;;;;7.00;6.40;;;4.60;99.90;;;;;;5074835;28;20239;-88
2021/01/19 11:37:31;;;;;;;7.97;7.00;;;4.70;99.90;;;;;;5074990;28;20229;-88
2021/01/19 11:40:05;;;;;;;5.37;4.60;;;4.70;99.90;;;;;;5075417;28;20697;-88
2021/01/19 11:42:39;;;;;;;8.70;7.73;;;4.70;99.90;;;;;;5074873;28;20279;-88
2021/01/19 11:45:09;;;;;;;8.13;6.27;;;4.70;99.90;;;;;;5075965;28;20202;-88
2021/01/19 11:47:44;;;;;;;7.53;6.83;;;4.70;99.90;;;;;;5074693;28;20189;-88
2021/01/19 11:50:14;;;;;;;8.20;7.20;;;4.70;99.90;;;;;;5074788;28;20169;-88
2021/01/19 11:52:47;;;;;;;5.77;5.17;;;4.80;99.90;;;;;;5074565;28;20182;-88
2021/01/19 11:55:14;;;;;;;7.80;6.67;;;4.80;99.90;;;;;;5074589;28;20704;-88
2021/01/19 11:57:48;;;;;;;8.17;7.37;;;4.80;99.90;;;;;;5075666;28;20181;-88
2021/01/19 12:00:17;;;;;;;8.07;7.27;;;4.70;99.90;;;;;;5074628;28;20165;-88
2021/01/19 12:02:43;;;;;;;8.17;7.33;;;4.80;99.90;;;;;;5075575;28;20600;-87
2021/01/19 12:05:15;;;;;;;6.30;5.67;;;4.80;99.90;;;;;;5074369;28;20270;-88
2021/01/19 12:07:44;;;;;;;7.93;7.03;;;4.80;99.90;;;;;;5075542;28;20167;-88
2021/01/19 12:10:16;;;;;;;8.23;7.43;;;4.80;99.90;;;;;;5074396;28;20228;-87
2021/01/19 12:12:43;;;;;;;7.00;6.30;;;4.80;99.90;;;;;;5074389;28;20202;-88
2021/01/19 12:15:09;;;;;;;7.00;6.30;;;4.80;99.90;;;;;;5074551;28;20197;-87
2021/01/19 12:17:35;;;;;;;6.80;6.10;;;4.80;99.90;;;;;;5074407;28;20178;-87
2021/01/19 12:20:09;;;;;;;7.40;6.70;;;4.90;99.90;;;;;;5074548;28;20228;-87
2021/01/19 12:22:35;;;;;;;8.20;7.40;;;4.90;99.90;;;;;;5074417;28;20201;-87
2021/01/19 12:25:08;;;;;;;8.77;7.83;;;4.90;99.90;;;;;;5075230;28;20273;-87
2021/01/19 12:27:34;;;;;;;6.40;5.80;;;4.90;99.90;;;;;;5075701;28;20188;-87
2021/01/19 12:30:00;;;;;;;7.27;6.57;;;4.90;99.90;;;;;;5074255;28;20549;-87
2021/01/19 12:32:26;;;;;;;7.43;6.47;;;4.90;99.90;;;;;;5074335;28;20179;-87
2021/01/19 12:35:01;;;;;;;8.80;7.10;;;4.90;99.90;;;;;;5074128;28;20603;-88
2021/01/19 12:37:31;;;;;;;6.40;5.80;;;4.90;99.90;;;;;;5073772;28;20682;-88
2021/01/19 12:40:00;;;;;;;8.17;7.40;;;4.90;99.90;;;;;;5073732;28;20175;-87
2021/01/19 12:42:27;;;;;;;6.07;5.57;;;5.00;99.90;;;;;;5073872;28;20206;-87
2021/01/19 12:44:56;;;;;;;7.70;6.90;;;5.00;99.90;;;;;;5074825;28;20186;-88
2021/01/19 12:47:29;;;;;;;8.57;7.60;;;5.00;99.90;;;;;;5075037;28;20214;-88
2021/01/19 12:50:01;;;;;;;7.73;7.00;;;5.00;99.90;;;;;;5073500;28;20172;-87
2021/01/19 12:52:36;;;;;;;7.87;7.07;;;5.10;99.90;;;;;;5074637;28;20182;-87
2021/01/19 12:55:08;;;;;;;6.57;5.97;;;5.10;99.90;;;;;;5074594;28;20673;-88
2021/01/19 12:57:41;;;;;;;7.20;6.37;;;5.10;99.90;;;;;;5073555;28;20176;-87
2021/01/19 13:00:16;;;;;;;9.47;8.13;;;5.10;99.90;;;;;;5075164;28;20614;-88
2021/01/19 13:02:50;;;;;;;7.23;6.53;;;5.10;99.90;;;;;;5074403;28;20774;-87
2021/01/19 13:05:21;;;;;;;6.27;5.67;;;5.10;99.90;;;;;;5073207;28;20197;-88
2021/01/19 13:07:52;;;;;;;8.83;7.93;;;5.20;99.90;;;;;;5073136;28;20176;-87
2021/01/19 13:10:23;;;;;;;9.53;7.60;;;5.20;99.90;;;;;;5073167;28;20517;-88
2021/01/19 13:12:53;;;;;;;7.70;6.60;;;5.20;99.90;;;;;;5072974;28;20674;-87
2021/01/19 13:15:26;;;;;;;8.73;7.87;;;5.20;99.90;;;;;;5073099;28;20252;-88
2021/01/19 13:17:56;;;;;;;11.43;10.30;;;5.20;99.90;;;;;;5074201;28;20163;-87
2021/01/19 13:20:30;;;;;;;10.97;9.83;;;5.20;99.90;;;;;;5072902;28;20171;-88
2021/01/19 13:22:56;;;;;;;9.53;8.50;;;5.30;99.90;;;;;;5072786;28;20201;-87